Impacts METAR Board
IDs:

KSEA - Seattle-Tacoma Intl, WA, US

Updated at: 2000 UTC 15 Jun 2019
Potential Impact None Slight Moderate High
Time 15/08Z 15/09Z 15/10Z 15/11Z 15/12Z 15/13Z 15/14Z 15/15Z 15/16Z 15/17Z 15/18Z 15/19Z 15/20Z
Temp56 55 55 53 53 53 54 54 56 59 60 63 66
Dewpt50 50 49 49 49 50 50 50 50 51 51 51 52
Altim30.08 30.08 30.09 30.09 30.09 30.09 30.09 30.10 30.10 30.10 30.10 30.10 30.10
VIS10 10 10 10 10 10 10 10 10 10 10 10 10
CIG-- -- -- -- 6 5 5 5 6 8 10 14 --
CoverSCTFEWFEWFEWBKNBKNOVCOVCOVCOVCBKNBKNSCT
FltCatVFRVFRVFRVFRIFRIFRIFRIFRIFRIFRMVFRMVFRVFR
WX--------------------------
WDir210220026023001900028002700
WSpd4 3 0 5 4 0 4 0 3 5 5 8 5
WGst-- -- -- -- -- -- -- -- -- -- -- -- --
Raw hourly METARs
KSEA 150753Z 21004KT 10SM SCT032 13/10 A3008 RMK AO2 SLP190 T01330100 402110128
KSEA 150853Z 22003KT 10SM FEW030 13/10 A3008 RMK AO2 SLP192 T01280100 53000
KSEA 150953Z 00000KT 10SM FEW030 13/09 A3009 RMK AO2 SLP194 T01280094
KSEA 151053Z 26005KT 10SM FEW030 12/09 A3009 RMK AO2 SLP193 T01170094
KSEA 151153Z 23004KT 10SM BKN006 BKN035 12/09 A3009 RMK AO2 SLP194 T01170094 10156 20117 51002
KSEA 151253Z 00000KT 10SM BKN005 BKN035 12/10 A3009 RMK AO2 SLP194 T01170100
KSEA 151353Z 19004KT 10SM OVC005 12/10 A3009 RMK AO2 SLP195 T01220100
KSEA 151453Z 00000KT 10SM OVC005 12/10 A3010 RMK AO2 SLP197 T01220100 53002
KSEA 151553Z VRB03KT 10SM OVC006 13/10 A3010 RMK AO2 SLP197 T01330100
KSEA 151653Z 28005KT 10SM OVC008 15/11 A3010 RMK AO2 SLP197 T01500106
KSEA 151753Z VRB05KT 10SM BKN010 16/11 A3010 RMK AO2 SLP199 T01560106 10161 20117 52002
KSEA 151853Z 27008KT 10SM BKN014 17/11 A3010 RMK AO2 SLP200 T01720106
KSEA 151953Z VRB05KT 10SM SCT014 19/11 A3010 RMK AO2 SLP197 T01890111



Page loaded:  20:54 UTC  |   01:54 PM Pacific  |   02:54 PM Mountain  |   03:54 PM Central  |   04:54 PM Eastern

 

ADVISORIES

FORECASTS

FORECASTS

OBSERVATIONS

USER TOOLS

ABOUT US